Time;durP1;ratioP1;P1;durP2;ratioP2;P2;SDS_P1;SDS_P2;PMS_P1;PMS_P2;Temp;Humidity;BMP_temperature;BMP_pressure;BME280_temperature;BME280_humidity;BME280_pressure;Samples;Min_cycle;Max_cycle;Signal;HPM_P1;HPM_P2
2022/03/09 00:00:30;;;;;;;13.10;8.40;;;;;;;-6.16;85.58;93358.78;2106213;28;20024;-82
2022/03/09 00:01:31;;;;;;;17.17;8.48;;;;;;;-6.38;87.58;93359.69;2098132;28;20028;-83
2022/03/09 00:02:32;;;;;;;14.50;9.57;;;;;;;-6.46;88.69;93363.03;2098210;28;20523;-83
2022/03/09 00:03:33;;;;;;;13.80;9.32;;;;;;;-6.46;88.55;93363.78;2106757;28;20031;-84
2022/03/09 00:04:34;;;;;;;13.60;8.45;;;;;;;-6.37;87.49;93361.19;2106170;28;20436;-81
2022/03/09 00:05:35;;;;;;;17.23;9.40;;;;;;;-6.46;87.00;93363.78;2098286;28;20048;-83
2022/03/09 00:06:36;;;;;;;13.23;8.80;;;;;;;-6.36;87.06;93371.31;2098094;28;20079;-82
2022/03/09 00:07:38;;;;;;;14.88;8.82;;;;;;;-6.29;87.38;93367.50;2106308;28;20028;-82
2022/03/09 00:08:39;;;;;;;13.98;9.00;;;;;;;-6.41;88.44;93362.88;2098530;28;20046;-83
2022/03/09 00:09:40;;;;;;;12.85;8.65;;;;;;;-6.44;87.77;93371.31;2098182;28;20377;-81
2022/03/09 00:10:40;;;;;;;13.18;9.32;;;;;;;-6.53;87.69;93365.31;2098175;28;20427;-82
2022/03/09 00:11:42;;;;;;;13.98;8.88;;;;;;;-6.39;87.52;93365.94;2098113;28;20040;-83
2022/03/09 00:12:43;;;;;;;14.70;8.82;;;;;;;-6.41;88.02;93378.47;2089515;28;20028;-82
2022/03/09 00:13:44;;;;;;;14.57;8.85;;;;;;;-6.47;88.89;93374.50;2089974;28;20043;-84
2022/03/09 00:14:46;;;;;;;13.77;8.15;;;;;;;-6.43;88.91;93370.22;2089949;28;20025;-82
2022/03/09 00:15:46;;;;;;;13.07;8.63;;;;;;;-6.50;88.97;93370.66;2098206;28;20075;-83
2022/03/09 00:16:47;;;;;;;13.65;9.07;;;;;;;-6.53;88.36;93373.88;2097958;28;20020;-82
2022/03/09 00:17:49;;;;;;;14.10;8.27;;;;;;;-6.57;89.73;93375.53;2106372;28;20085;-82
2022/03/09 00:18:50;;;;;;;12.40;9.13;;;;;;;-6.55;88.49;93377.84;2106478;28;20078;-82
2022/03/09 00:19:51;;;;;;;17.38;9.48;;;;;;;-6.53;89.37;93379.09;2098165;28;20042;-82
2022/03/09 00:20:52;;;;;;;13.55;8.73;;;;;;;-6.49;89.34;93384.44;2098357;28;20020;-83
2022/03/09 00:21:53;;;;;;;12.73;8.85;;;;;;;-6.57;88.76;93378.16;2096418;28;20100;-82
2022/03/09 00:22:54;;;;;;;13.07;8.23;;;;;;;-6.55;89.57;93375.25;2104060;28;20024;-83
2022/03/09 00:23:55;;;;;;;13.30;8.77;;;;;;;-6.47;90.09;93382.28;2095862;28;20028;-83
2022/03/09 00:24:56;;;;;;;13.27;8.35;;;;;;;-6.47;89.56;93377.09;2087685;28;20461;-83
2022/03/09 00:25:56;;;;;;;13.88;8.85;;;;;;;-6.48;88.98;93378.16;2089903;28;20048;-81
2022/03/09 00:26:58;;;;;;;14.02;8.77;;;;;;;-6.41;87.58;93379.28;2089526;28;20025;-82
2022/03/09 00:27:59;;;;;;;12.52;8.18;;;;;;;-6.38;86.22;93370.06;2089768;28;20445;-83
2022/03/09 00:29:00;;;;;;;17.20;8.82;;;;;;;-6.37;86.81;93384.59;2081617;28;20116;-82
2022/03/09 00:30:02;;;;;;;17.77;9.52;;;;;;;-6.41;86.93;93374.06;2081740;28;20027;-83
2022/03/09 00:31:03;;;;;;;14.32;8.73;;;;;;;-6.20;86.43;93374.22;2089936;28;20040;-83
2022/03/09 00:32:06;;;;;;;14.98;9.13;;;;;;;-6.26;88.19;93375.47;2089511;28;20572;-83
2022/03/09 00:33:08;;;;;;;14.88;8.48;;;;;;;-6.34;87.52;93376.97;2090023;28;20497;-83
2022/03/09 00:34:09;;;;;;;15.82;9.68;;;;;;;-6.35;87.67;93383.25;2090176;28;20029;-83
2022/03/09 00:35:10;;;;;;;13.18;8.30;;;;;;;-6.47;88.62;93377.84;2098059;28;20789;-83
2022/03/09 00:36:11;;;;;;;15.15;8.98;;;;;;;-6.46;88.24;93383.81;2089247;28;20037;-82
2022/03/09 00:37:12;;;;;;;14.27;9.68;;;;;;;-6.48;88.90;93384.13;2088361;28;20444;-83
2022/03/09 00:38:13;;;;;;;14.95;9.80;;;;;;;-6.53;89.36;93391.31;2114732;28;20031;-83
2022/03/09 00:39:14;;;;;;;16.42;9.05;;;;;;;-6.58;90.17;93387.03;2106193;28;20027;-83
2022/03/09 00:40:15;;;;;;;13.70;8.98;;;;;;;-6.57;89.83;93385.94;2094556;28;20056;-81
2022/03/09 00:41:16;;;;;;;16.27;8.80;;;;;;;-6.56;90.52;93384.13;2089899;28;20493;-83
2022/03/09 00:42:17;;;;;;;16.20;8.98;;;;;;;-6.63;90.42;93393.13;2103170;28;20116;-83
2022/03/09 00:43:18;;;;;;;14.45;9.52;;;;;;;-6.67;90.33;93391.41;2097873;28;20040;-81
2022/03/09 00:44:19;;;;;;;13.93;8.98;;;;;;;-6.65;89.84;93382.25;2081635;28;20442;-83
2022/03/09 00:45:20;;;;;;;15.38;9.40;;;;;;;-6.73;90.29;93390.78;2089735;28;20056;-82
2022/03/09 00:46:21;;;;;;;12.68;8.70;;;;;;;-6.70;89.69;93382.38;2097914;28;20032;-81
2022/03/09 00:47:22;;;;;;;14.35;8.75;;;;;;;-6.64;89.39;93383.78;2097708;28;20035;-80
2022/03/09 00:48:23;;;;;;;13.55;9.38;;;;;;;-6.74;89.89;93385.88;2105795;28;20028;-81
2022/03/09 00:49:24;;;;;;;11.93;8.68;;;;;;;-6.74;89.97;93386.66;2097941;28;20021;-80
2022/03/09 00:50:25;;;;;;;16.42;9.32;;;;;;;-6.77;89.98;93387.25;2089619;28;20032;-79
2022/03/09 00:51:26;;;;;;;13.30;9.23;;;;;;;-6.81;90.33;93394.09;2097086;28;20021;-80
2022/03/09 00:52:27;;;;;;;13.02;8.48;;;;;;;-6.81;91.10;93385.53;2081224;28;20021;-79
2022/03/09 00:53:28;;;;;;;14.23;9.40;;;;;;;-6.89;91.95;93395.63;2081500;28;20493;-80
2022/03/09 00:54:29;;;;;;;17.77;8.93;;;;;;;-6.87;92.13;93390.88;2081360;28;20033;-81
2022/03/09 00:55:30;;;;;;;13.23;9.27;;;;;;;-6.86;91.80;93392.41;2089703;28;20186;-80
2022/03/09 00:56:30;;;;;;;19.25;10.30;;;;;;;-6.59;89.65;93394.03;2097850;28;20029;-80
2022/03/09 00:57:31;;;;;;;13.65;9.25;;;;;;;-6.62;88.79;93381.66;2112972;28;20540;-80
2022/03/09 00:58:32;;;;;;;15.13;9.23;;;;;;;-6.59;88.27;93394.03;2097761;28;20115;-80
2022/03/09 00:59:33;;;;;;;15.13;9.95;;;;;;;-6.81;90.81;93386.31;2089384;28;20445;-81
2022/03/09 01:00:34;;;;;;;12.93;8.68;;;;;;;-6.88;91.42;93389.34;2096461;28;20032;-81
2022/03/09 01:01:35;;;;;;;16.13;9.60;;;;;;;-6.81;90.54;93391.50;2089427;28;20052;-81
2022/03/09 01:02:41;;;;;;;12.00;8.65;;;;;;;-6.72;89.84;93386.34;2097649;28;20120;-80
2022/03/09 01:03:43;;;;;;;14.70;9.30;;;;;;;-6.73;88.67;93387.41;2106272;28;20093;-79
2022/03/09 01:04:43;;;;;;;12.30;9.00;;;;;;;-6.80;90.29;93395.66;2089509;28;20108;-80
2022/03/09 01:05:44;;;;;;;13.93;8.90;;;;;;;-6.74;90.63;93393.69;2089538;28;20033;-81
2022/03/09 01:06:45;;;;;;;13.52;8.88;;;;;;;-6.83;91.46;93395.50;2100269;28;20073;-79
2022/03/09 01:07:46;;;;;;;15.13;8.10;;;;;;;-6.82;91.38;93389.22;2089340;28;20523;-81
2022/03/09 01:08:47;;;;;;;14.73;9.27;;;;;;;-6.94;91.69;93389.78;2081385;28;20034;-81
2022/03/09 01:09:48;;;;;;;12.27;8.70;;;;;;;-6.92;91.47;93393.63;2089505;28;20029;-79
2022/03/09 01:10:49;;;;;;;12.88;9.02;;;;;;;-6.86;91.59;93389.03;2089306;28;20562;-79
2022/03/09 01:11:51;;;;;;;13.27;9.32;;;;;;;-6.92;92.00;93398.06;2094022;28;20082;-81
2022/03/09 01:12:52;;;;;;;11.93;8.80;;;;;;;-6.90;92.43;93393.31;2097549;28;20032;-81
2022/03/09 01:13:53;;;;;;;13.40;9.60;;;;;;;-6.85;91.64;93398.38;2089691;28;20036;-80
2022/03/09 01:14:54;;;;;;;12.35;8.80;;;;;;;-6.85;91.69;93393.16;2089557;28;20024;-80
2022/03/09 01:15:54;;;;;;;16.10;9.45;;;;;;;-6.87;91.52;93388.28;2097654;28;20098;-79
2022/03/09 01:16:55;;;;;;;14.65;8.63;;;;;;;-6.89;91.94;93394.84;2097542;28;20024;-81
2022/03/09 01:17:56;;;;;;;15.07;8.95;;;;;;;-6.86;91.00;93389.03;2091378;28;20438;-80
2022/03/09 01:18:57;;;;;;;13.20;9.13;;;;;;;-6.99;91.26;93388.06;2081101;28;20036;-80
2022/03/09 01:19:59;;;;;;;15.80;9.48;;;;;;;-6.92;92.14;93385.81;2089338;28;20032;-79
2022/03/09 01:21:00;;;;;;;13.60;9.05;;;;;;;-6.87;90.43;93388.28;2089446;28;20025;-79
2022/03/09 01:22:01;;;;;;;12.95;8.73;;;;;;;-6.91;91.13;93384.00;2081287;28;20056;-80
2022/03/09 01:23:02;;;;;;;15.43;9.88;;;;;;;-6.94;90.83;93387.19;2089311;28;20033;-79
2022/03/09 01:24:03;;;;;;;13.27;9.38;;;;;;;-6.99;92.16;93379.50;2097381;28;20408;-81
2022/03/09 01:25:05;;;;;;;14.15;9.25;;;;;;;-7.02;92.85;93375.69;2089598;28;20025;-80
2022/03/09 01:26:06;;;;;;;12.95;9.20;;;;;;;-7.01;92.90;93386.84;2089711;28;20520;-80
2022/03/09 01:27:07;;;;;;;12.07;8.82;;;;;;;-6.97;92.87;93385.97;2089346;28;20031;-81
2022/03/09 01:28:08;;;;;;;13.10;8.63;;;;;;;-6.97;92.79;93377.41;2081069;28;20033;-80
2022/03/09 01:29:09;;;;;;;12.63;9.27;;;;;;;-6.87;92.30;93387.53;2081358;28;20548;-80
2022/03/09 01:30:10;;;;;;;14.80;8.75;;;;;;;-6.89;91.45;93389.63;2089443;28;20783;-80
2022/03/09 01:31:11;;;;;;;12.48;8.38;;;;;;;-7.02;92.25;93385.31;2081231;28;20453;-80
2022/03/09 01:32:12;;;;;;;15.18;9.27;;;;;;;-7.03;92.54;93383.78;2089217;28;20020;-79
2022/03/09 01:33:13;;;;;;;13.23;9.15;;;;;;;-7.00;92.48;93385.78;2089324;28;20036;-81
2022/03/09 01:34:14;;;;;;;15.75;8.95;;;;;;;-6.94;91.66;93382.75;2089297;28;20474;-81
2022/03/09 01:35:15;;;;;;;17.50;9.15;;;;;;;-7.00;91.87;93378.75;2089240;28;20036;-81
2022/03/09 01:36:16;;;;;;;17.05;9.38;;;;;;;-6.95;91.97;93378.63;2088661;28;20163;-81
2022/03/09 01:37:17;;;;;;;16.02;9.18;;;;;;;-6.96;91.97;93381.53;2097478;28;20024;-80
2022/03/09 01:38:18;;;;;;;15.95;9.07;;;;;;;-7.07;92.06;93383.59;2089082;28;20048;-79
2022/03/09 01:39:20;;;;;;;14.35;9.23;;;;;;;-6.92;91.88;93380.63;2073953;28;20034;-79
2022/03/09 01:40:21;;;;;;;15.27;9.15;;;;;;;-7.10;92.53;93384.22;2081052;28;20025;-81
2022/03/09 01:41:22;;;;;;;13.20;8.90;;;;;;;-7.08;93.56;93371.69;2089064;28;20025;-80
2022/03/09 01:42:23;;;;;;;16.25;8.52;;;;;;;-6.97;92.55;93375.56;2088996;28;20115;-80
2022/03/09 01:43:24;;;;;;;16.58;9.35;;;;;;;-7.01;93.32;93379.06;2097658;28;20030;-79
2022/03/09 01:44:25;;;;;;;12.70;8.65;;;;;;;-6.99;93.63;93369.88;2099814;28;20033;-79
2022/03/09 01:45:26;;;;;;;20.95;9.30;;;;;;;-7.11;94.42;93372.31;2081050;28;20659;-80
2022/03/09 01:46:27;;;;;;;15.27;9.05;;;;;;;-7.12;94.05;93370.75;2088868;28;20029;-80
2022/03/09 01:47:28;;;;;;;15.45;9.00;;;;;;;-7.23;93.86;93369.50;2097106;28;20029;-81
2022/03/09 01:48:29;;;;;;;14.35;8.73;;;;;;;-7.07;93.67;93373.22;2088497;28;20484;-80
2022/03/09 01:49:30;;;;;;;13.52;9.27;;;;;;;-7.06;93.27;93364.38;2080824;28;20080;-80
2022/03/09 01:50:31;;;;;;;16.02;9.30;;;;;;;-7.11;94.81;93367.88;2089140;28;20024;-81
2022/03/09 01:51:37;;;;;;;15.02;8.90;;;;;;;-7.22;94.11;93369.19;2088960;28;20029;-80
2022/03/09 01:52:39;;;;;;;14.88;8.88;;;;;;;-7.30;95.02;93374.31;2097864;28;20024;-79
2022/03/09 01:53:40;;;;;;;13.90;8.98;;;;;;;-7.41;95.26;93374.59;2110452;28;20020;-81
2022/03/09 01:54:41;;;;;;;15.90;9.55;;;;;;;-7.36;95.27;93371.09;2105604;28;20035;-81
2022/03/09 01:55:42;;;;;;;19.00;9.73;;;;;;;-7.37;96.53;93375.53;2105601;28;20519;-80
2022/03/09 01:56:43;;;;;;;14.82;9.02;;;;;;;-7.33;95.75;93369.72;2105453;28;20024;-80
2022/03/09 01:57:44;;;;;;;16.75;9.70;;;;;;;-7.24;94.90;93368.72;2105207;28;20074;-80
2022/03/09 01:58:45;;;;;;;13.05;9.07;;;;;;;-7.25;94.65;93371.59;2089318;28;20039;-80
2022/03/09 01:59:52;;;;;;;14.95;8.90;;;;;;;-7.24;95.54;93368.72;2088581;28;20162;-80
2022/03/09 02:00:53;;;;;;;15.55;9.07;;;;;;;-7.29;94.89;93373.25;2089752;28;20040;-79
2022/03/09 02:01:54;;;;;;;14.20;8.57;;;;;;;-7.21;94.21;93370.72;2080678;28;20474;-80
2022/03/09 02:02:55;;;;;;;14.80;8.75;;;;;;;-7.21;93.83;93368.09;2088568;28;20434;-81
2022/03/09 02:03:57;;;;;;;15.10;9.35;;;;;;;-7.21;93.05;93369.94;2097122;28;20115;-79
2022/03/09 02:04:58;;;;;;;18.63;10.13;;;;;;;-7.30;94.83;93380.28;2088917;28;20167;-80
2022/03/09 02:05:59;;;;;;;12.75;8.55;;;;;;;-7.18;93.42;93380.50;2088586;28;20418;-78
2022/03/09 02:07:00;;;;;;;14.45;9.38;;;;;;;-7.18;92.76;93372.72;2090670;28;20035;-80
2022/03/09 02:10:42;;;;;;;14.70;7.88;;;;;;;-7.26;93.49;93364.88;2096960;28;20271;-80
2022/03/09 02:11:43;;;;;;;13.80;8.23;;;;;;;-7.37;93.73;93372.94;2098459;28;20044;-79
2022/03/09 02:12:44;;;;;;;14.25;8.07;;;;;;;-7.25;93.64;93372.38;2096796;28;20051;-79
2022/03/09 02:13:45;;;;;;;13.82;9.15;;;;;;;-7.46;93.91;93371.31;2097043;28;20021;-80
2022/03/09 02:14:51;;;;;;;15.35;8.68;;;;;;;-7.37;94.34;93369.56;2105531;28;20047;-81
2022/03/09 02:15:52;;;;;;;16.15;9.30;;;;;;;-7.37;94.27;93374.75;2097710;28;20024;-80
2022/03/09 02:16:53;;;;;;;13.63;8.57;;;;;;;-7.37;95.00;93372.94;2097388;28;20079;-80
2022/03/09 02:17:54;;;;;;;17.33;9.20;;;;;;;-7.34;94.84;93374.16;2105428;28;20028;-80
2022/03/09 02:18:55;;;;;;;13.95;8.57;;;;;;;-7.21;94.53;93369.94;2105453;28;20020;-80
2022/03/09 02:19:57;;;;;;;16.58;8.45;;;;;;;-7.29;95.89;93368.06;2098953;28;20618;-79
2022/03/09 02:21:02;;;;;;;14.00;9.32;;;;;;;-7.30;95.75;93374.31;2105456;28;20024;-81
2022/03/09 02:22:06;;;;;;;15.15;8.77;;;;;;;-7.22;94.94;93366.59;2105817;28;20016;-80
2022/03/09 02:23:07;;;;;;;16.73;9.45;;;;;;;-7.38;95.31;93363.59;2097773;28;20077;-81
2022/03/09 02:24:08;;;;;;;14.15;9.05;;;;;;;-7.35;95.60;93365.59;2091873;28;20431;-81
2022/03/09 02:25:13;;;;;;;14.82;8.80;;;;;;;-7.47;96.05;93365.38;2088944;28;20085;-81
2022/03/09 02:26:15;;;;;;;15.30;8.93;;;;;;;-7.44;96.21;93364.78;2090179;28;20028;-80
2022/03/09 02:27:17;;;;;;;14.77;9.23;;;;;;;-7.44;96.06;93362.19;2089490;28;20032;-81
2022/03/09 02:28:18;;;;;;;13.18;8.70;;;;;;;-7.40;96.04;93357.94;2097900;28;20408;-79
2022/03/09 02:29:19;;;;;;;13.30;8.32;;;;;;;-7.38;94.99;93362.81;2113925;28;20449;-80
2022/03/09 02:30:20;;;;;;;15.63;9.93;;;;;;;-7.44;95.78;93361.44;2097475;28;20020;-79
2022/03/09 02:31:21;;;;;;;13.77;8.85;;;;;;;-7.38;95.12;93371.38;2089239;28;20362;-79
2022/03/09 02:32:23;;;;;;;16.35;9.52;;;;;;;-7.41;95.73;93363.44;2105745;28;20028;-81
2022/03/09 02:33:24;;;;;;;15.80;8.68;;;;;;;-7.50;95.96;93371.19;2105573;28;20069;-81
2022/03/09 02:34:25;;;;;;;12.63;8.88;;;;;;;-7.50;96.92;93362.63;2101983;28;20105;-80
2022/03/09 02:35:26;;;;;;;14.93;9.23;;;;;;;-7.56;96.77;93361.97;2093404;28;20123;-79
2022/03/09 02:36:27;;;;;;;12.85;8.52;;;;;;;-7.56;96.96;93359.38;2103575;28;20028;-79
2022/03/09 02:37:28;;;;;;;14.75;8.73;;;;;;;-7.53;97.18;93365.81;2089778;28;20033;-80
2022/03/09 02:38:29;;;;;;;12.32;8.63;;;;;;;-7.45;97.49;93362.50;2094180;28;20039;-79
2022/03/09 02:39:30;;;;;;;14.20;8.80;;;;;;;-7.52;96.95;93369.94;2095950;28;20058;-81
2022/03/09 02:40:31;;;;;;;16.15;9.55;;;;;;;-7.44;97.96;93364.03;2094688;28;20025;-81
2022/03/09 02:41:33;;;;;;;17.25;9.95;;;;;;;-7.45;97.62;93365.09;2096083;28;20024;-81
2022/03/09 02:42:34;;;;;;;17.35;9.43;;;;;;;-7.54;97.92;93359.09;2088256;28;20017;-80
2022/03/09 02:43:35;;;;;;;15.45;9.60;;;;;;;-7.57;98.22;93359.66;2104505;28;20032;-81
2022/03/09 02:44:37;;;;;;;16.58;9.65;;;;;;;-7.56;98.56;93361.19;2112609;28;20062;-79
2022/03/09 02:45:38;;;;;;;16.08;9.90;;;;;;;-7.57;98.63;93364.84;2104078;28;20107;-81
2022/03/09 02:46:39;;;;;;;14.18;9.35;;;;;;;-7.38;97.90;93352.44;2095384;28;20028;-81
2022/03/09 02:47:41;;;;;;;13.07;9.30;;;;;;;-7.39;97.44;93358.69;2095446;28;20024;-80
2022/03/09 02:48:42;;;;;;;16.73;10.05;;;;;;;-7.47;96.82;93356.81;2095747;28;20039;-81
2022/03/09 02:49:43;;;;;;;16.10;9.32;;;;;;;-7.53;97.92;93352.81;2095840;28;20029;-81
2022/03/09 02:50:44;;;;;;;14.88;9.80;;;;;;;-7.60;97.99;93355.81;2095715;28;20028;-81
2022/03/09 02:51:45;;;;;;;17.73;10.15;;;;;;;-7.61;98.56;93357.66;2087148;28;20025;-80
2022/03/09 02:52:46;;;;;;;15.57;9.32;;;;;;;-7.58;98.52;93352.94;2100807;28;20020;-80
2022/03/09 02:53:48;;;;;;;16.08;10.45;;;;;;;-7.62;98.83;93357.97;2100905;28;20024;-80
2022/03/09 02:54:50;;;;;;;16.00;9.73;;;;;;;-7.50;97.88;93357.44;2092807;28;20028;-79
2022/03/09 02:55:51;;;;;;;15.63;9.77;;;;;;;-7.49;97.62;93361.56;2104416;28;20039;-79
2022/03/09 02:56:52;;;;;;;13.70;9.07;;;;;;;-7.51;97.67;93355.88;2104011;28;20032;-80
2022/03/09 02:57:53;;;;;;;15.45;8.95;;;;;;;-7.53;98.48;93356.19;2095826;28;20098;-80
2022/03/09 02:58:54;;;;;;;14.82;9.73;;;;;;;-7.56;97.63;93356.78;2093236;28;20419;-81
2022/03/09 02:59:55;;;;;;;16.35;9.77;;;;;;;-7.59;98.94;93357.38;2095333;28;20102;-80
2022/03/09 03:00:56;;;;;;;14.13;9.57;;;;;;;-7.57;98.44;93362.25;2087714;28;20071;-81
2022/03/09 03:01:56;;;;;;;16.10;10.52;;;;;;;-7.52;98.31;93364.72;2095795;28;20032;-79
2022/03/09 03:02:57;;;;;;;13.68;9.48;;;;;;;-7.55;99.16;93357.53;2104103;28;20012;-79
2022/03/09 03:03:58;;;;;;;15.57;9.82;;;;;;;-7.49;97.67;93356.38;2098517;28;20031;-80
2022/03/09 03:04:59;;;;;;;15.23;9.65;;;;;;;-7.49;98.59;93359.72;2091600;28;20040;-81
2022/03/09 03:06:00;;;;;;;16.38;9.95;;;;;;;-7.53;98.16;93363.22;2095940;28;20033;-80
2022/03/09 03:07:01;;;;;;;18.40;10.05;;;;;;;-7.49;97.78;93362.31;2098915;28;20032;-81
2022/03/09 03:08:03;;;;;;;16.90;9.70;;;;;;;-7.54;99.24;93359.84;2090550;28;20412;-80
2022/03/09 03:09:04;;;;;;;13.98;9.90;;;;;;;-7.57;98.25;93357.84;2104653;28;20024;-79
2022/03/09 03:10:05;;;;;;;15.60;9.98;;;;;;;-7.60;99.45;93366.22;2105567;28;20020;-81
2022/03/09 03:11:08;;;;;;;15.10;10.35;;;;;;;-7.62;98.97;93366.50;2096678;28;20388;-80
2022/03/09 03:12:09;;;;;;;17.30;10.10;;;;;;;-7.67;100.00;93363.28;2096934;28;20127;-79
2022/03/09 03:13:10;;;;;;;14.30;9.20;;;;;;;-7.78;100.00;93370.50;2105681;28;20773;-81
2022/03/09 03:14:11;;;;;;;14.85;9.27;;;;;;;-7.67;100.00;93369.22;2105424;28;20028;-81
2022/03/09 03:15:12;;;;;;;15.88;9.95;;;;;;;-7.64;100.00;93370.44;2097916;28;20032;-80
2022/03/09 03:16:13;;;;;;;15.85;9.75;;;;;;;-7.62;100.00;93378.72;2098639;28;20025;-78
2022/03/09 03:17:14;;;;;;;13.63;9.27;;;;;;;-7.55;99.55;93373.09;2098589;28;20468;-80
2022/03/09 03:18:15;;;;;;;15.63;9.68;;;;;;;-7.50;100.00;93373.00;2090415;28;20127;-81
2022/03/09 03:19:16;;;;;;;15.52;10.75;;;;;;;-7.54;98.73;93378.00;2090025;28;20029;-81
2022/03/09 03:20:17;;;;;;;16.65;9.68;;;;;;;-7.61;99.59;93381.00;2089877;28;20051;-81
2022/03/09 03:21:18;;;;;;;16.23;9.70;;;;;;;-7.57;99.29;93380.44;2097687;28;20029;-80
2022/03/09 03:22:19;;;;;;;15.15;9.27;;;;;;;-7.67;100.00;93377.00;2097735;28;20082;-79
2022/03/09 03:23:30;;;;;;;14.40;9.75;;;;;;;-7.65;100.00;93379.31;2094853;28;20028;-80
2022/03/09 03:24:32;;;;;;;15.07;9.70;;;;;;;-7.66;100.00;93380.38;2115767;27;20197;-80
2022/03/09 03:25:33;;;;;;;17.45;10.05;;;;;;;-7.58;100.00;93364.09;2106594;28;20463;-80
2022/03/09 03:26:33;;;;;;;16.70;10.07;;;;;;;-7.68;100.00;93374.69;2101538;28;20028;-78
2022/03/09 03:27:34;;;;;;;15.13;9.43;;;;;;;-7.57;100.00;93377.84;2098298;28;20612;-80
2022/03/09 03:28:42;;;;;;;14.23;9.55;;;;;;;-7.57;100.00;93362.25;2089988;28;20509;-80
2022/03/09 03:29:43;;;;;;;14.30;9.68;;;;;;;-7.60;100.00;93374.00;2103563;28;20546;-79
2022/03/09 03:30:45;;;;;;;16.20;9.90;;;;;;;-7.58;100.00;93376.31;2106835;28;20035;-79
2022/03/09 03:31:46;;;;;;;15.73;9.48;;;;;;;-7.57;99.38;93370.06;2094806;28;20333;-80
2022/03/09 03:32:47;;;;;;;13.73;9.65;;;;;;;-7.60;99.13;93371.41;2106855;28;20481;-81
2022/03/09 03:33:48;;;;;;;16.00;9.00;;;;;;;-7.62;99.15;93371.69;2115230;28;20464;-80
2022/03/09 03:34:49;;;;;;;14.40;9.57;;;;;;;-7.54;99.23;93364.28;2098491;28;20028;-79
2022/03/09 03:35:50;;;;;;;15.23;9.48;;;;;;;-7.45;98.65;93370.28;2098071;28;20135;-80
2022/03/09 03:36:51;;;;;;;15.55;8.95;;;;;;;-7.41;98.43;93373.81;2091224;28;20028;-80
2022/03/09 03:37:52;;;;;;;14.30;9.35;;;;;;;-7.47;98.20;93369.81;2105226;28;20115;-79
2022/03/09 03:38:53;;;;;;;17.42;10.18;;;;;;;-7.66;98.23;93360.38;2100092;28;20028;-78
2022/03/09 03:39:54;;;;;;;13.60;9.23;;;;;;;-7.55;98.27;93363.50;2106573;28;20369;-81
2022/03/09 03:40:55;;;;;;;15.63;10.13;;;;;;;-7.46;97.81;93372.13;2104102;28;20035;-80
2022/03/09 03:41:56;;;;;;;14.23;9.23;;;;;;;-7.55;98.35;93379.09;2098107;28;20361;-80
2022/03/09 03:42:57;;;;;;;15.63;9.32;;;;;;;-7.61;97.36;93369.88;2097954;28;20091;-81
2022/03/09 03:43:59;;;;;;;14.82;9.25;;;;;;;-7.67;97.59;93377.00;2095982;28;20028;-79
2022/03/09 03:45:00;;;;;;;14.45;9.57;;;;;;;-7.62;98.49;93376.88;2089800;28;20119;-79
2022/03/09 03:46:01;;;;;;;17.17;9.77;;;;;;;-7.73;99.12;93374.81;2098235;28;20079;-80
2022/03/09 03:47:02;;;;;;;13.80;9.30;;;;;;;-7.69;100.00;93370.56;2106272;28;20032;-81
2022/03/09 03:48:03;;;;;;;14.77;9.27;;;;;;;-7.69;99.17;93366.16;2097653;28;20077;-81
2022/03/09 03:49:04;;;;;;;14.13;9.07;;;;;;;-7.73;99.08;93375.59;2107301;28;20052;-80
2022/03/09 03:50:06;;;;;;;17.38;9.98;;;;;;;-7.82;99.56;93366.22;2098384;28;20035;-80
2022/03/09 03:51:07;;;;;;;13.82;8.85;;;;;;;-7.81;100.00;93370.34;2090302;28;20419;-81
2022/03/09 03:52:08;;;;;;;16.63;8.68;;;;;;;-7.81;100.00;93371.13;2090007;28;20036;-81
2022/03/09 03:53:09;;;;;;;13.57;8.88;;;;;;;-7.89;99.96;93367.41;2098440;28;20162;-79
2022/03/09 03:54:10;;;;;;;14.80;9.88;;;;;;;-7.87;100.00;93369.69;2098297;28;20477;-80
2022/03/09 03:55:11;;;;;;;13.10;9.13;;;;;;;-7.83;99.97;93369.88;2090133;28;20029;-80
2022/03/09 03:56:12;;;;;;;14.55;9.48;;;;;;;-7.82;99.88;93363.63;2090159;28;20021;-79
2022/03/09 03:57:13;;;;;;;16.40;9.70;;;;;;;-7.89;100.00;93369.22;2098323;28;20500;-78
2022/03/09 03:58:14;;;;;;;13.68;9.45;;;;;;;-7.91;100.00;93371.34;2098337;28;20024;-79
2022/03/09 03:59:15;;;;;;;15.60;9.75;;;;;;;-7.89;100.00;93367.41;2098086;28;20028;-78
2022/03/09 04:00:16;;;;;;;15.63;9.38;;;;;;;-7.91;100.00;93364.31;2094397;28;20123;-80
2022/03/09 04:01:17;;;;;;;13.85;8.82;;;;;;;-8.00;100.00;93365.31;2106376;28;20028;-81
2022/03/09 04:02:18;;;;;;;14.93;8.95;;;;;;;-7.96;100.00;93372.22;2094847;28;20083;-80
2022/03/09 04:03:19;;;;;;;14.07;9.70;;;;;;;-7.92;100.00;93372.41;2086864;28;20048;-79
2022/03/09 04:04:20;;;;;;;15.15;9.13;;;;;;;-7.90;100.00;93367.69;2098304;28;20342;-79
2022/03/09 04:05:22;;;;;;;13.90;8.48;;;;;;;-7.82;100.00;93366.97;2095105;28;20460;-79
2022/03/09 04:06:23;;;;;;;14.85;9.15;;;;;;;-7.76;100.00;93372.84;2098383;28;20490;-81
2022/03/09 04:07:24;;;;;;;15.50;9.13;;;;;;;-7.78;100.00;93370.50;2099580;28;20442;-82
2022/03/09 04:08:25;;;;;;;14.00;10.07;;;;;;;-7.87;100.00;93362.66;2098139;28;20052;-78
2022/03/09 04:09:27;;;;;;;16.67;9.95;;;;;;;-7.94;100.00;93366.75;2090059;28;20673;-78
2022/03/09 04:10:28;;;;;;;13.80;9.57;;;;;;;-7.93;100.00;93369.03;2094166;28;20027;-79
2022/03/09 04:11:29;;;;;;;16.73;9.85;;;;;;;-7.84;100.00;93371.69;2089583;28;20060;-78
2022/03/09 04:12:30;;;;;;;18.30;10.13;;;;;;;-7.83;100.00;93365.44;2089459;28;20040;-80
2022/03/09 04:13:31;;;;;;;15.02;9.15;;;;;;;-7.80;100.00;93366.69;2088440;28;20459;-80
2022/03/09 04:14:32;;;;;;;13.85;9.77;;;;;;;-7.92;100.00;93359.44;2098455;28;20829;-81
2022/03/09 04:15:33;;;;;;;14.18;9.85;;;;;;;-7.91;100.00;93369.50;2098024;28;20031;-78
2022/03/09 04:16:34;;;;;;;12.93;9.02;;;;;;;-7.86;100.00;93366.03;2089861;28;20113;-80
2022/03/09 04:17:46;;;;;;;17.23;9.80;;;;;;;-7.81;100.00;93365.94;2106492;28;20028;-79
2022/03/09 04:18:47;;;;;;;12.80;9.15;;;;;;;-7.81;100.00;93370.34;2101389;28;20029;-80
2022/03/09 04:19:48;;;;;;;16.27;9.15;;;;;;;-7.92;100.00;93370.56;2106576;28;20645;-81
2022/03/09 04:20:48;;;;;;;13.82;8.45;;;;;;;-7.95;100.00;93365.19;2097968;28;20749;-79
2022/03/09 04:21:49;;;;;;;16.80;9.77;;;;;;;-8.03;100.00;93371.88;2107427;28;20051;-80
2022/03/09 04:22:51;;;;;;;14.70;8.82;;;;;;;-7.99;100.00;93372.03;2114648;28;20038;-79
2022/03/09 04:23:51;;;;;;;13.38;8.93;;;;;;;-8.03;100.00;93361.50;2097562;28;20760;-79
2022/03/09 04:24:52;;;;;;;15.73;9.43;;;;;;;-7.86;100.00;93364.22;2098228;28;20028;-81
2022/03/09 04:25:53;;;;;;;13.80;8.95;;;;;;;-7.87;100.00;93374.88;2083061;28;20025;-80
2022/03/09 04:26:54;;;;;;;13.98;9.02;;;;;;;-7.84;100.00;93365.75;2106381;28;20028;-79
2022/03/09 04:27:55;;;;;;;14.90;9.48;;;;;;;-7.74;100.00;93365.50;2106310;28;20024;-80
2022/03/09 04:28:56;;;;;;;12.05;8.43;;;;;;;-7.69;100.00;93373.94;2106269;28;20031;-81
2022/03/09 04:30:10;;;;;;;14.05;9.25;;;;;;;-7.69;99.48;93363.56;2098189;28;20424;-80
2022/03/09 04:31:11;;;;;;;12.27;8.43;;;;;;;-7.67;99.33;93364.03;2093190;28;20139;-78
2022/03/09 04:32:12;;;;;;;14.40;9.15;;;;;;;-7.82;99.53;93369.56;2089613;28;20485;-80
2022/03/09 04:33:13;;;;;;;12.27;8.10;;;;;;;-7.75;100.00;93366.56;2098070;28;20028;-79
2022/03/09 04:34:14;;;;;;;13.20;8.93;;;;;;;-7.86;99.78;93369.41;2098117;28;20036;-79
2022/03/09 04:35:14;;;;;;;14.15;8.90;;;;;;;-7.93;100.00;93366.44;2081550;28;20033;-79
2022/03/09 04:36:16;;;;;;;15.32;8.75;;;;;;;-7.93;100.00;93370.88;2093667;28;20464;-79
2022/03/09 04:37:16;;;;;;;14.70;9.40;;;;;;;-7.88;100.00;93368.16;2098124;28;20032;-79
2022/03/09 04:38:17;;;;;;;14.93;9.00;;;;;;;-7.97;100.00;93372.53;2098200;28;20043;-79
2022/03/09 04:39:18;;;;;;;13.32;8.23;;;;;;;-8.01;100.00;93363.78;2098120;28;20645;-78
2022/03/09 04:40:19;;;;;;;13.30;9.68;;;;;;;-8.05;99.47;93363.59;2089617;28;20453;-80
2022/03/09 04:41:21;;;;;;;14.93;8.80;;;;;;;-8.05;99.10;93366.19;2089702;28;20033;-79
2022/03/09 04:42:22;;;;;;;14.07;8.63;;;;;;;-8.08;100.00;93369.38;2090025;28;20035;-80
2022/03/09 04:43:23;;;;;;;16.45;10.18;;;;;;;-8.12;100.00;93374.41;2097802;28;20429;-80
2022/03/09 04:44:24;;;;;;;13.77;9.30;;;;;;;-8.15;100.00;93371.63;2089570;28;20056;-80
2022/03/09 04:45:25;;;;;;;14.38;9.05;;;;;;;-8.20;100.00;93372.50;2089574;28;20063;-80
2022/03/09 04:46:26;;;;;;;12.18;8.57;;;;;;;-8.13;100.00;93375.44;2097779;28;20032;-80